Time;durP1;ratioP1;P1;durP2;ratioP2;P2;SDS_P1;SDS_P2;PMS_P1;PMS_P2;Temp;Humidity;BMP_temperature;BMP_pressure;BME280_temperature;BME280_humidity;BME280_pressure;Samples;Min_cycle;Max_cycle;Signal;HPM_P1;HPM_P2
2021/03/31 00:02:05;;;;;;;39.17;20.08;;;;;;;;;;5004190;28;20034;-73
2021/03/31 00:04:31;;;;;;;38.70;20.08;;;;;;;;;;4991076;28;20026;-73
2021/03/31 00:06:57;;;;;;;42.83;22.45;;;;;;;;;;5008700;28;20041;-73
2021/03/31 00:09:23;;;;;;;40.97;21.23;;;;;;;;;;5009690;28;20026;-73
2021/03/31 00:11:49;;;;;;;39.00;21.23;;;;;;;;;;5006542;28;20487;-73
2021/03/31 00:14:15;;;;;;;34.60;20.42;;;;;;;;;;5008862;28;20558;-73
2021/03/31 00:16:42;;;;;;;34.90;19.75;;;;;;;;;;5007319;28;20076;-74
2021/03/31 00:19:08;;;;;;;38.63;20.33;;;;;;;;;;4991466;28;20030;-73
2021/03/31 00:21:34;;;;;;;43.10;20.77;;;;;;;;;;4990970;28;20044;-73
2021/03/31 00:24:00;;;;;;;37.17;20.38;;;;;;;;;;5009220;28;20026;-73
2021/03/31 00:26:26;;;;;;;35.42;20.25;;;;;;;;;;5005021;28;20038;-73
2021/03/31 00:28:52;;;;;;;39.85;21.05;;;;;;;;;;5008698;28;20037;-73
2021/03/31 00:31:18;;;;;;;40.50;22.85;;;;;;;;;;4998714;28;20045;-73
2021/03/31 00:33:44;;;;;;;43.13;21.90;;;;;;;;;;5008114;28;20072;-73
2021/03/31 00:36:10;;;;;;;42.38;22.95;;;;;;;;;;5008558;28;20030;-73
2021/03/31 00:38:36;;;;;;;42.28;24.05;;;;;;;;;;4992186;28;20041;-73
2021/03/31 00:41:04;;;;;;;42.20;24.45;;;;;;;;;;4997428;28;20021;-73
2021/03/31 00:43:30;;;;;;;42.45;22.52;;;;;;;;;;5007405;28;20033;-73
2021/03/31 00:45:56;;;;;;;43.70;23.70;;;;;;;;;;5008502;28;20037;-73
2021/03/31 00:48:22;;;;;;;44.33;22.63;;;;;;;;;;5011052;28;20034;-73
2021/03/31 00:50:50;;;;;;;41.80;22.98;;;;;;;;;;5011562;28;20061;-73
2021/03/31 00:53:17;;;;;;;39.75;22.70;;;;;;;;;;5003064;28;20025;-73
2021/03/31 00:55:44;;;;;;;42.17;22.90;;;;;;;;;;5008684;28;20526;-73
2021/03/31 00:58:10;;;;;;;43.08;22.60;;;;;;;;;;4989085;28;20037;-73
2021/03/31 01:00:36;;;;;;;40.08;22.35;;;;;;;;;;5011848;28;20172;-73
2021/03/31 01:03:03;;;;;;;39.60;21.23;;;;;;;;;;4991343;28;20025;-73
2021/03/31 01:05:29;;;;;;;37.03;21.58;;;;;;;;;;5010524;28;20496;-73
2021/03/31 01:07:56;;;;;;;38.15;22.25;;;;;;;;;;5010933;28;20022;-73
2021/03/31 01:10:25;;;;;;;35.20;21.20;;;;;;;;;;5012128;28;20072;-73
2021/03/31 01:12:57;;;;;;;33.55;19.88;;;;;;;;;;5010801;28;20026;-73
2021/03/31 01:15:26;;;;;;;35.90;20.30;;;;;;;;;;5004050;28;20730;-73
2021/03/31 01:17:53;;;;;;;36.97;21.15;;;;;;;;;;5007094;28;20109;-72
2021/03/31 01:20:37;;;;;;;42.33;22.25;;;;;;;;;;5011680;28;20162;-72
2021/03/31 01:23:09;;;;;;;36.13;21.63;;;;;;;;;;5008866;28;20018;-73
2021/03/31 01:25:38;;;;;;;35.33;20.23;;;;;;;;;;5006810;28;20060;-72
2021/03/31 01:28:04;;;;;;;38.50;22.13;;;;;;;;;;5010964;28;20032;-73
2021/03/31 01:30:36;;;;;;;37.10;21.10;;;;;;;;;;5008671;28;20065;-73
2021/03/31 01:33:02;;;;;;;;;;;;;;;;;;5010210;28;20033;-73
2021/03/31 01:35:28;;;;;;;38.83;20.48;;;;;;;;;;5008749;28;19952;-73
2021/03/31 01:37:56;;;;;;;41.35;21.48;;;;;;;;;;5009766;28;20053;-73
2021/03/31 01:40:23;;;;;;;34.20;20.65;;;;;;;;;;5011580;28;20125;-73
2021/03/31 01:42:54;;;;;;;38.90;21.33;;;;;;;;;;5002790;28;20130;-72
2021/03/31 01:45:22;;;;;;;36.67;21.60;;;;;;;;;;5007503;28;20026;-73
2021/03/31 01:47:49;;;;;;;43.35;22.88;;;;;;;;;;4987515;28;20036;-73
2021/03/31 01:50:15;;;;;;;41.30;20.20;;;;;;;;;;5006853;28;20021;-73
2021/03/31 01:52:42;;;;;;;34.08;19.80;;;;;;;;;;4988915;28;20065;-73
2021/03/31 01:55:08;;;;;;;38.75;20.98;;;;;;;;;;5006970;28;20034;-73
2021/03/31 01:57:35;;;;;;;41.05;21.35;;;;;;;;;;5009288;28;20026;-73
2021/03/31 02:00:01;;;;;;;33.97;19.63;;;;;;;;;;5006416;28;20568;-72
2021/03/31 02:02:27;;;;;;;36.15;20.38;;;;;;;;;;5009203;28;20049;-73
2021/03/31 02:04:54;;;;;;;39.45;21.52;;;;;;;;;;4993934;28;20030;-73
2021/03/31 02:07:22;;;;;;;38.95;21.83;;;;;;;;;;5010879;28;20026;-72
2021/03/31 02:09:49;;;;;;;36.88;22.25;;;;;;;;;;5010392;28;20076;-73
2021/03/31 02:12:18;;;;;;;39.08;24.08;;;;;;;;;;4996862;28;20459;-73
2021/03/31 02:14:46;;;;;;;48.70;26.45;;;;;;;;;;5006142;28;20030;-73
2021/03/31 02:17:14;;;;;;;46.28;27.02;;;;;;;;;;5009047;28;20044;-73
2021/03/31 02:19:41;;;;;;;42.00;25.15;;;;;;;;;;4993912;28;20439;-73
2021/03/31 02:22:08;;;;;;;45.20;23.95;;;;;;;;;;4994227;28;20488;-73
2021/03/31 02:24:34;;;;;;;43.00;23.77;;;;;;;;;;5008804;28;20080;-73
2021/03/31 02:27:01;;;;;;;38.78;22.70;;;;;;;;;;5009754;28;20084;-73
2021/03/31 02:29:27;;;;;;;38.03;22.67;;;;;;;;;;5011918;28;20037;-73
2021/03/31 02:31:53;;;;;;;42.65;22.90;;;;;;;;;;5010736;28;20029;-73
2021/03/31 02:34:20;;;;;;;38.92;21.33;;;;;;;;;;5008457;28;20026;-73
2021/03/31 02:36:46;;;;;;;38.88;21.13;;;;;;;;;;5006094;28;20401;-73
2021/03/31 02:39:14;;;;;;;35.75;20.35;;;;;;;;;;5005595;28;20018;-72
2021/03/31 02:41:43;;;;;;;37.60;22.02;;;;;;;;;;5009342;28;20025;-73
2021/03/31 02:44:10;;;;;;;40.63;22.55;;;;;;;;;;5006754;28;20303;-73
2021/03/31 02:46:36;;;;;;;35.72;22.20;;;;;;;;;;5008277;28;20061;-72
2021/03/31 02:49:02;;;;;;;35.65;19.23;;;;;;;;;;5010317;28;20025;-73
2021/03/31 02:51:31;;;;;;;39.33;21.42;;;;;;;;;;5000622;28;20023;-73
2021/03/31 02:53:57;;;;;;;36.95;21.33;;;;;;;;;;5006923;28;20209;-72
2021/03/31 02:56:23;;;;;;;39.95;21.92;;;;;;;;;;5010510;28;20057;-73
2021/03/31 02:58:50;;;;;;;37.83;21.55;;;;;;;;;;4989437;28;20084;-73
2021/03/31 03:01:16;;;;;;;40.95;22.63;;;;;;;;;;5009612;28;20052;-73
2021/03/31 03:03:42;;;;;;;37.33;21.88;;;;;;;;;;5008487;28;20030;-73
2021/03/31 03:06:08;;;;;;;37.60;21.33;;;;;;;;;;4992939;28;20118;-72
2021/03/31 03:08:34;;;;;;;40.30;22.92;;;;;;;;;;5005107;28;20485;-73
2021/03/31 03:11:01;;;;;;;42.50;22.00;;;;;;;;;;4995651;28;20030;-73
2021/03/31 03:13:31;;;;;;;37.30;21.55;;;;;;;;;;5008330;28;20022;-73
2021/03/31 03:15:58;;;;;;;40.95;21.48;;;;;;;;;;5007662;28;20571;-73
2021/03/31 03:18:24;;;;;;;42.63;22.15;;;;;;;;;;4998615;28;20030;-73
2021/03/31 03:20:51;;;;;;;36.22;20.83;;;;;;;;;;4997335;28;20125;-73
2021/03/31 03:23:18;;;;;;;39.97;21.85;;;;;;;;;;5010446;28;20068;-73
2021/03/31 03:25:45;;;;;;;42.45;22.13;;;;;;;;;;5006054;28;20040;-72
2021/03/31 03:28:11;;;;;;;36.85;21.48;;;;;;;;;;5009221;28;20018;-72
2021/03/31 03:30:37;;;;;;;38.25;20.63;;;;;;;;;;5006644;28;20534;-73
2021/03/31 03:33:05;;;;;;;40.75;21.08;;;;;;;;;;5010610;28;20496;-73
2021/03/31 03:35:32;;;;;;;39.70;23.05;;;;;;;;;;4994310;28;20018;-73
2021/03/31 03:37:59;;;;;;;43.72;22.70;;;;;;;;;;4992376;28;20018;-73
2021/03/31 03:40:25;;;;;;;40.63;23.13;;;;;;;;;;5007862;28;20042;-72
2021/03/31 03:42:52;;;;;;;41.40;22.38;;;;;;;;;;5007141;28;20567;-73
2021/03/31 03:45:19;;;;;;;43.83;22.92;;;;;;;;;;4995885;28;20061;-72
2021/03/31 03:47:45;;;;;;;40.17;22.27;;;;;;;;;;5010325;28;20042;-72
2021/03/31 03:50:12;;;;;;;37.75;21.55;;;;;;;;;;4992487;28;20400;-73
2021/03/31 03:52:39;;;;;;;39.25;22.02;;;;;;;;;;4999782;28;20037;-72
2021/03/31 03:55:06;;;;;;;40.20;22.10;;;;;;;;;;4989806;28;20030;-73
2021/03/31 03:57:32;;;;;;;40.42;23.30;;;;;;;;;;5010310;28;20026;-73
2021/03/31 03:59:58;;;;;;;42.95;22.77;;;;;;;;;;4992427;28;20034;-73
2021/03/31 04:02:24;;;;;;;41.13;23.00;;;;;;;;;;5004116;28;20052;-72
2021/03/31 04:04:50;;;;;;;43.55;24.58;;;;;;;;;;4998123;28;20041;-73
2021/03/31 04:07:17;;;;;;;40.92;24.58;;;;;;;;;;5014497;28;20049;-72
2021/03/31 04:09:44;;;;;;;48.78;24.13;;;;;;;;;;5012796;28;20103;-73
2021/03/31 04:12:11;;;;;;;43.50;22.48;;;;;;;;;;5011828;28;20072;-72
2021/03/31 04:14:38;;;;;;;42.65;23.80;;;;;;;;;;4985888;28;20038;-72
2021/03/31 04:17:06;;;;;;;41.78;23.88;;;;;;;;;;5013983;28;20073;-72
2021/03/31 04:19:32;;;;;;;41.08;22.63;;;;;;;;;;5012879;28;20026;-73
2021/03/31 04:21:58;;;;;;;42.08;22.48;;;;;;;;;;4994529;28;20121;-72
2021/03/31 04:24:24;;;;;;;40.30;22.90;;;;;;;;;;4996000;28;20084;-72
2021/03/31 04:26:51;;;;;;;40.25;24.48;;;;;;;;;;5013833;28;20026;-72
2021/03/31 04:29:17;;;;;;;41.00;22.73;;;;;;;;;;5013264;28;20531;-73
2021/03/31 04:31:43;;;;;;;41.42;22.80;;;;;;;;;;5008944;28;20510;-72
2021/03/31 04:34:10;;;;;;;44.03;24.70;;;;;;;;;;5010823;28;20034;-72
2021/03/31 04:36:36;;;;;;;40.25;21.33;;;;;;;;;;5013614;28;20026;-72
2021/03/31 04:39:05;;;;;;;43.53;21.63;;;;;;;;;;5012791;28;20531;-73
2021/03/31 04:41:31;;;;;;;39.67;22.00;;;;;;;;;;5010298;28;20025;-72
2021/03/31 04:43:57;;;;;;;38.63;22.98;;;;;;;;;;5009327;28;20515;-72
2021/03/31 04:46:23;;;;;;;40.72;23.20;;;;;;;;;;4995727;28;20034;-73
2021/03/31 04:48:49;;;;;;;35.75;21.08;;;;;;;;;;5011166;28;20030;-73
2021/03/31 04:51:15;;;;;;;41.60;22.33;;;;;;;;;;5018353;28;20231;-73
2021/03/31 04:53:41;;;;;;;36.90;21.50;;;;;;;;;;4995036;28;20488;-72
2021/03/31 04:56:08;;;;;;;41.70;22.67;;;;;;;;;;5012342;28;20109;-72
2021/03/31 04:58:34;;;;;;;41.30;23.13;;;;;;;;;;5013088;28;20160;-73
2021/03/31 05:01:01;;;;;;;40.90;23.02;;;;;;;;;;4996279;28;20033;-72
2021/03/31 05:03:27;;;;;;;39.50;22.63;;;;;;;;;;5012799;28;20021;-72
2021/03/31 05:05:53;;;;;;;37.72;23.15;;;;;;;;;;5012155;28;20021;-72
2021/03/31 05:08:20;;;;;;;39.13;22.45;;;;;;;;;;5012291;28;20105;-72
2021/03/31 05:10:46;;;;;;;38.70;22.50;;;;;;;;;;5012031;28;20096;-72
2021/03/31 05:13:12;;;;;;;42.20;21.30;;;;;;;;;;5001238;28;20026;-73
2021/03/31 05:15:38;;;;;;;37.72;21.35;;;;;;;;;;5003407;28;20022;-72
2021/03/31 05:18:04;;;;;;;35.63;21.77;;;;;;;;;;5013114;28;20026;-72
2021/03/31 05:20:30;;;;;;;41.65;21.85;;;;;;;;;;5012794;28;20021;-72
2021/03/31 05:22:56;;;;;;;38.60;22.10;;;;;;;;;;5012707;28;20510;-72
2021/03/31 05:25:23;;;;;;;39.00;22.10;;;;;;;;;;4993662;28;20048;-72
2021/03/31 05:27:49;;;;;;;39.42;21.65;;;;;;;;;;5012547;28;20058;-72
2021/03/31 05:30:15;;;;;;;40.60;21.65;;;;;;;;;;4997391;28;20100;-72
2021/03/31 05:32:41;;;;;;;37.63;22.67;;;;;;;;;;5010155;28;20029;-72
2021/03/31 05:35:08;;;;;;;44.88;23.67;;;;;;;;;;5010940;28;20030;-72
2021/03/31 05:37:35;;;;;;;39.75;22.75;;;;;;;;;;4997671;28;20553;-72
2021/03/31 05:40:01;;;;;;;41.30;22.17;;;;;;;;;;5005428;28;20030;-72
2021/03/31 05:42:27;;;;;;;45.40;24.58;;;;;;;;;;5009421;28;20022;-72
2021/03/31 05:44:53;;;;;;;41.78;22.45;;;;;;;;;;4989166;28;20026;-72
2021/03/31 05:47:28;;;;;;;35.88;22.48;;;;;;;;;;5010900;28;20033;-72
2021/03/31 05:49:54;;;;;;;39.67;21.77;;;;;;;;;;5010751;28;20516;-72
2021/03/31 05:52:21;;;;;;;42.67;22.80;;;;;;;;;;4995881;28;20041;-72
2021/03/31 05:54:47;;;;;;;43.95;22.15;;;;;;;;;;5011125;28;20057;-72
2021/03/31 05:57:13;;;;;;;38.63;21.73;;;;;;;;;;5012400;28;20025;-72
2021/03/31 05:59:40;;;;;;;38.60;21.15;;;;;;;;;;5011913;28;20030;-73
2021/03/31 06:02:06;;;;;;;41.97;23.40;;;;;;;;;;4994024;28;20030;-72
2021/03/31 06:04:33;;;;;;;40.67;21.58;;;;;;;;;;5011261;28;20018;-72
2021/03/31 06:06:59;;;;;;;37.72;21.58;;;;;;;;;;5010356;28;20088;-71
2021/03/31 06:09:26;;;;;;;40.22;22.92;;;;;;;;;;5009087;28;20496;-72
2021/03/31 06:11:54;;;;;;;38.13;21.58;;;;;;;;;;5010404;28;20025;-71
2021/03/31 06:14:37;;;;;;;43.28;21.70;;;;;;;;;;5008730;28;20040;-71
2021/03/31 06:17:09;;;;;;;39.60;22.02;;;;;;;;;;4998947;28;20045;-72
2021/03/31 06:19:38;;;;;;;44.97;24.02;;;;;;;;;;5008012;28;20021;-71
2021/03/31 06:22:20;;;;;;;41.70;22.05;;;;;;;;;;5006795;28;20046;-71
2021/03/31 06:25:06;;;;;;;42.00;22.95;;;;;;;;;;5010991;28;21408;-71
2021/03/31 06:27:32;;;;;;;42.38;23.45;;;;;;;;;;5009621;28;20022;-72
2021/03/31 06:30:05;;;;;;;44.55;26.05;;;;;;;;;;5007897;28;20050;-71
2021/03/31 06:32:38;;;;;;;41.80;23.08;;;;;;;;;;5007483;28;20097;-71
2021/03/31 06:35:05;;;;;;;38.63;23.77;;;;;;;;;;5008095;28;20030;-71
2021/03/31 06:37:36;;;;;;;46.63;25.27;;;;;;;;;;5008751;28;20029;-71
2021/03/31 06:40:02;;;;;;;38.35;23.15;;;;;;;;;;4981945;28;20069;-71
2021/03/31 06:42:35;;;;;;;36.15;25.10;;;;;;;;;;5006825;28;20105;-72
2021/03/31 06:45:12;;;;;;;36.83;23.55;;;;;;;;;;5011327;28;20087;-71
2021/03/31 06:47:44;;;;;;;39.80;23.45;;;;;;;;;;5005631;28;20030;-72
2021/03/31 06:50:10;;;;;;;;;;;;;;;;;;5006398;28;20030;-71
2021/03/31 06:53:12;;;;;;;42.35;22.75;;;;;;;;;;5010285;28;19963;-71
2021/03/31 06:55:39;;;;;;;40.97;21.97;;;;;;;;;;4908448;29;20043;-71
2021/03/31 06:58:07;;;;;;;41.15;25.05;;;;;;;;;;4991170;28;20271;-71
2021/03/31 07:00:34;;;;;;;40.35;24.08;;;;;;;;;;5011298;28;20022;-71
2021/03/31 07:03:03;;;;;;;45.83;24.13;;;;;;;;;;5006418;28;20029;-71
2021/03/31 07:05:34;;;;;;;41.17;24.88;;;;;;;;;;5007731;28;20033;-72
2021/03/31 07:08:05;;;;;;;41.90;24.33;;;;;;;;;;4991454;28;20029;-71
2021/03/31 07:10:40;;;;;;;39.97;23.75;;;;;;;;;;5008137;28;20040;-71
2021/03/31 07:13:06;;;;;;;47.40;25.00;;;;;;;;;;5007531;28;20038;-71
2021/03/31 07:15:33;;;;;;;42.55;24.10;;;;;;;;;;4991542;28;20069;-71
2021/03/31 07:18:01;;;;;;;43.65;26.23;;;;;;;;;;4992106;28;20026;-71
2021/03/31 07:20:28;;;;;;;42.95;25.50;;;;;;;;;;5007912;28;20019;-71
2021/03/31 07:22:54;;;;;;;44.53;24.77;;;;;;;;;;5008228;28;20018;-71
2021/03/31 07:25:22;;;;;;;45.42;24.52;;;;;;;;;;5013464;28;20030;-71
2021/03/31 07:27:49;;;;;;;46.85;24.83;;;;;;;;;;5010654;28;20029;-71
2021/03/31 07:30:22;;;;;;;42.95;24.48;;;;;;;;;;5007092;28;20045;-72
2021/03/31 07:33:08;;;;;;;46.05;26.42;;;;;;;;;;5001813;28;20579;-71
2021/03/31 07:35:34;;;;;;;44.13;24.85;;;;;;;;;;5007042;28;20144;-71
2021/03/31 07:38:01;;;;;;;44.28;25.73;;;;;;;;;;5009695;28;20030;-71
2021/03/31 07:40:29;;;;;;;46.92;25.60;;;;;;;;;;5006197;28;20420;-71
2021/03/31 07:43:14;;;;;;;49.13;26.42;;;;;;;;;;5004473;28;20021;-71
2021/03/31 07:46:00;;;;;;;43.97;26.02;;;;;;;;;;5003514;28;20014;-71
2021/03/31 07:48:27;;;;;;;42.63;25.48;;;;;;;;;;5007117;28;20022;-71
2021/03/31 07:50:53;;;;;;;46.42;25.70;;;;;;;;;;4986559;28;20024;-72
2021/03/31 07:53:22;;;;;;;47.25;26.92;;;;;;;;;;5003890;28;20045;-72
2021/03/31 07:55:49;;;;;;;45.53;26.90;;;;;;;;;;5002696;28;20471;-72
2021/03/31 07:58:21;;;;;;;45.47;26.02;;;;;;;;;;5005814;28;20049;-72
2021/03/31 08:00:54;;;;;;;48.53;26.90;;;;;;;;;;4990420;28;20022;-72
2021/03/31 08:03:30;;;;;;;47.05;26.92;;;;;;;;;;5006734;28;20109;-72
2021/03/31 08:06:06;;;;;;;45.53;28.15;;;;;;;;;;4997924;28;20022;-72
2021/03/31 08:08:33;;;;;;;46.83;26.65;;;;;;;;;;5005489;28;20049;-72
2021/03/31 08:10:59;;;;;;;47.35;27.95;;;;;;;;;;4989219;28;20113;-73
2021/03/31 08:13:25;;;;;;;47.63;27.00;;;;;;;;;;5004653;28;20614;-72
2021/03/31 08:15:51;;;;;;;48.33;27.63;;;;;;;;;;5002091;28;20470;-73
2021/03/31 08:18:18;;;;;;;44.08;25.58;;;;;;;;;;5009324;28;20111;-72
2021/03/31 08:20:45;;;;;;;46.80;27.65;;;;;;;;;;4992790;28;20034;-73
2021/03/31 08:23:11;;;;;;;47.97;28.05;;;;;;;;;;5008194;28;20096;-72
2021/03/31 08:25:39;;;;;;;49.40;27.45;;;;;;;;;;5004011;28;20034;-73
2021/03/31 08:28:06;;;;;;;44.33;26.98;;;;;;;;;;5005042;28;20022;-73
2021/03/31 08:30:34;;;;;;;56.38;30.90;;;;;;;;;;5004095;28;20301;-73
2021/03/31 08:33:00;;;;;;;55.92;30.30;;;;;;;;;;5006217;28;20030;-72
2021/03/31 08:35:27;;;;;;;57.28;32.20;;;;;;;;;;5003060;28;20030;-73
2021/03/31 08:37:54;;;;;;;57.80;30.27;;;;;;;;;;5003032;28;20018;-72
2021/03/31 08:40:21;;;;;;;57.85;31.90;;;;;;;;;;5003993;28;20037;-72
2021/03/31 08:42:51;;;;;;;53.63;30.90;;;;;;;;;;5004936;28;20038;-72
2021/03/31 08:45:52;;;;;;;61.03;33.47;;;;;;;;;;5003986;28;20511;-72
2021/03/31 08:48:35;;;;;;;57.08;31.05;;;;;;;;;;4988302;28;20137;-74
2021/03/31 08:51:05;;;;;;;67.00;36.00;;;;;;;;;;5007915;28;20887;-72
2021/03/31 08:53:32;;;;;;;63.40;33.40;;;;;;;;;;5005096;28;20053;-72
2021/03/31 08:55:58;;;;;;;59.28;33.55;;;;;;;;;;5006884;28;20619;-73
2021/03/31 08:58:27;;;;;;;70.22;36.75;;;;;;;;;;5010452;28;20101;-73
2021/03/31 09:00:53;;;;;;;78.10;37.45;;;;;;;;;;5010382;28;20045;-73
2021/03/31 09:03:27;;;;;;;67.32;36.55;;;;;;;;;;5010513;28;20052;-72
2021/03/31 09:05:58;;;;;;;73.55;37.58;;;;;;;;;;4991968;28;20472;-73
2021/03/31 09:08:24;;;;;;;73.55;38.40;;;;;;;;;;5008612;28;20032;-72
2021/03/31 09:11:11;;;;;;;68.20;36.47;;;;;;;;;;5011038;28;20022;-72
2021/03/31 09:13:39;;;;;;;63.53;34.83;;;;;;;;;;5012262;28;20778;-72
2021/03/31 09:16:13;;;;;;;72.63;38.08;;;;;;;;;;4987836;28;20060;-72
2021/03/31 09:18:39;;;;;;;63.58;36.65;;;;;;;;;;5010362;28;20048;-72
2021/03/31 09:21:06;;;;;;;70.32;38.60;;;;;;;;;;5009536;28;20026;-72
2021/03/31 09:23:32;;;;;;;74.30;39.88;;;;;;;;;;5008652;28;20105;-72
2021/03/31 09:26:05;;;;;;;67.47;35.70;;;;;;;;;;5006841;28;20470;-73
2021/03/31 09:28:32;;;;;;;71.65;38.35;;;;;;;;;;5008555;28;20021;-72
2021/03/31 09:31:11;;;;;;;70.07;38.50;;;;;;;;;;4993515;28;20053;-72
2021/03/31 09:33:43;;;;;;;65.13;36.92;;;;;;;;;;5003058;28;20042;-73
2021/03/31 09:36:10;;;;;;;72.88;38.83;;;;;;;;;;4986665;28;21919;-72
2021/03/31 09:38:36;;;;;;;71.25;36.72;;;;;;;;;;4992558;28;20033;-72
2021/03/31 09:41:05;;;;;;;69.93;38.83;;;;;;;;;;5005807;28;20029;-73
2021/03/31 09:43:32;;;;;;;69.15;36.97;;;;;;;;;;5011816;28;20022;-74
2021/03/31 09:45:58;;;;;;;76.38;38.55;;;;;;;;;;5007268;28;20108;-74
2021/03/31 09:48:24;;;;;;;69.10;36.03;;;;;;;;;;4989680;28;20109;-73
2021/03/31 09:50:51;;;;;;;68.82;37.72;;;;;;;;;;5007888;28;20096;-73
2021/03/31 09:53:18;;;;;;;65.82;37.75;;;;;;;;;;5006247;28;20140;-73
2021/03/31 09:55:44;;;;;;;66.05;36.45;;;;;;;;;;4990448;28;20189;-72
2021/03/31 09:58:10;;;;;;;69.43;35.58;;;;;;;;;;5007212;28;20025;-73
2021/03/31 10:00:38;;;;;;;68.15;36.75;;;;;;;;;;4987803;28;20030;-74
2021/03/31 10:03:05;;;;;;;71.93;36.65;;;;;;;;;;5010335;28;20029;-74
2021/03/31 10:05:32;;;;;;;67.10;34.47;;;;;;;;;;4987682;28;20041;-73
2021/03/31 10:07:59;;;;;;;72.88;34.83;;;;;;;;;;5010372;28;20060;-72
2021/03/31 10:10:39;;;;;;;63.85;32.67;;;;;;;;;;5003136;28;20384;-74
2021/03/31 10:13:05;;;;;;;62.10;30.85;;;;;;;;;;4984676;28;20026;-73
2021/03/31 10:15:31;;;;;;;58.67;32.53;;;;;;;;;;4989662;28;20029;-72
2021/03/31 10:17:58;;;;;;;61.30;27.75;;;;;;;;;;5005544;28;20500;-71
2021/03/31 10:20:31;;;;;;;61.92;32.30;;;;;;;;;;4989995;28;20045;-70
2021/03/31 10:22:58;;;;;;;64.05;32.92;;;;;;;;;;5006181;28;20384;-71
2021/03/31 10:25:31;;;;;;;64.20;29.23;;;;;;;;;;5004843;28;20113;-72
2021/03/31 10:28:00;;;;;;;61.08;30.38;;;;;;;;;;5005071;28;20117;-72
2021/03/31 10:30:30;;;;;;;55.67;27.08;;;;;;;;;;5008839;28;20046;-71
2021/03/31 10:32:56;;;;;;;61.58;30.52;;;;;;;;;;5003466;28;20065;-71
2021/03/31 10:35:56;;;;;;;57.05;29.95;;;;;;;;;;5004508;28;20065;-72
2021/03/31 10:38:51;;;;;;;60.55;30.35;;;;;;;;;;5006345;28;20181;-72
2021/03/31 10:52:06;;;;;;;48.22;24.50;;;;;;;;;;5006301;28;20034;-72
2021/03/31 10:54:32;;;;;;;55.53;25.70;;;;;;;;;;5006735;28;20034;-72
2021/03/31 10:57:16;;;;;;;49.40;24.50;;;;;;;;;;4989023;28;20037;-72
2021/03/31 10:59:42;;;;;;;52.25;24.10;;;;;;;;;;4985748;28;20412;-71
2021/03/31 11:02:08;;;;;;;50.33;24.73;;;;;;;;;;5006126;28;20030;-72
2021/03/31 11:04:35;;;;;;;47.00;23.90;;;;;;;;;;5008580;28;20033;-72
2021/03/31 11:07:01;;;;;;;45.70;23.13;;;;;;;;;;4981394;28;20124;-72
2021/03/31 11:09:30;;;;;;;45.92;22.83;;;;;;;;;;5000007;28;20022;-74
2021/03/31 11:11:57;;;;;;;39.42;19.40;;;;;;;;;;5000809;28;20034;-72
2021/03/31 11:14:23;;;;;;;39.75;18.80;;;;;;;;;;5005432;28;20089;-72
2021/03/31 11:16:55;;;;;;;38.00;18.27;;;;;;;;;;5003551;28;20064;-74
2021/03/31 11:27:07;;;;;;;36.50;17.83;;;;;;;;;;5000765;28;20033;-73
2021/03/31 11:29:33;;;;;;;38.70;19.45;;;;;;;;;;4999920;28;20033;-72
2021/03/31 11:31:59;;;;;;;42.38;19.85;;;;;;;;;;5007033;28;20029;-73
2021/03/31 11:34:25;;;;;;;39.40;19.88;;;;;;;;;;4994289;28;20029;-72
2021/03/31 11:36:53;;;;;;;35.65;17.40;;;;;;;;;;5006461;28;20038;-72
2021/03/31 11:39:19;;;;;;;33.75;17.27;;;;;;;;;;5005896;28;20499;-71
2021/03/31 11:41:46;;;;;;;32.22;16.48;;;;;;;;;;5000571;28;20109;-72
2021/03/31 11:44:12;;;;;;;38.33;17.60;;;;;;;;;;5001837;28;20526;-72
2021/03/31 11:46:38;;;;;;;38.03;17.00;;;;;;;;;;5004201;28;20034;-71
2021/03/31 11:49:04;;;;;;;31.45;16.60;;;;;;;;;;4995565;28;20030;-73
2021/03/31 11:51:30;;;;;;;34.70;17.75;;;;;;;;;;5004166;28;20080;-72
2021/03/31 11:53:56;;;;;;;27.63;11.70;;;;;;;;;;5001400;28;20044;-72
2021/03/31 11:56:22;;;;;;;24.23;11.95;;;;;;;;;;4982682;28;20117;-72
2021/03/31 11:58:48;;;;;;;26.35;14.27;;;;;;;;;;5008699;28;20022;-71
2021/03/31 12:01:14;;;;;;;31.17;11.80;;;;;;;;;;5007682;28;20277;-73
2021/03/31 12:03:40;;;;;;;22.67;12.77;;;;;;;;;;5007093;28;20025;-71
2021/03/31 12:06:06;;;;;;;25.50;13.07;;;;;;;;;;5002463;28;20029;-74
2021/03/31 12:08:32;;;;;;;25.67;13.32;;;;;;;;;;4987856;28;20033;-72
2021/03/31 12:10:58;;;;;;;22.35;11.60;;;;;;;;;;5006006;28;20049;-72
2021/03/31 12:13:25;;;;;;;26.58;13.73;;;;;;;;;;5003834;28;20022;-73
2021/03/31 12:15:51;;;;;;;25.30;12.88;;;;;;;;;;5006557;28;20273;-73
2021/03/31 12:18:17;;;;;;;23.48;12.52;;;;;;;;;;4985524;28;20451;-73
2021/03/31 12:20:43;;;;;;;24.38;12.20;;;;;;;;;;5007084;28;20021;-73
2021/03/31 12:23:09;;;;;;;19.10;11.70;;;;;;;;;;5009577;28;20028;-73
2021/03/31 12:25:35;;;;;;;44.63;22.23;;;;;;;;;;4990181;28;20032;-72
2021/03/31 12:28:02;;;;;;;29.70;15.55;;;;;;;;;;5010862;28;20018;-73
2021/03/31 12:30:29;;;;;;;47.67;23.77;;;;;;;;;;5009562;28;20145;-71
2021/03/31 12:32:55;;;;;;;42.55;22.75;;;;;;;;;;5011211;28;20058;-73
2021/03/31 12:35:22;;;;;;;22.92;11.85;;;;;;;;;;5008934;28;20396;-72
2021/03/31 12:37:48;;;;;;;30.73;15.02;;;;;;;;;;5006391;28;20485;-72
2021/03/31 12:40:14;;;;;;;43.47;22.75;;;;;;;;;;5009934;28;20062;-71
2021/03/31 12:42:41;;;;;;;48.03;24.05;;;;;;;;;;5011994;28;20034;-74
2021/03/31 12:45:07;;;;;;;58.38;31.58;;;;;;;;;;5011715;28;20403;-74
2021/03/31 12:47:37;;;;;;;59.80;30.83;;;;;;;;;;4986397;28;20445;-73
2021/03/31 12:50:05;;;;;;;54.28;29.80;;;;;;;;;;5010349;28;20022;-73
2021/03/31 12:52:55;;;;;;;63.15;33.22;;;;;;;;;;5013183;28;20524;-73
2021/03/31 12:55:52;;;;;;;58.08;31.17;;;;;;;;;;5012264;28;20038;-72
2021/03/31 12:58:13;;;;;;;58.33;32.00;;;;;;;;;;5009070;28;20053;-72
2021/03/31 13:00:39;;;;;;;64.75;34.05;;;;;;;;;;5012528;28;20049;-72
2021/03/31 13:03:06;;;;;;;58.65;31.80;;;;;;;;;;5011155;28;20076;-73
2021/03/31 13:05:33;;;;;;;62.42;32.80;;;;;;;;;;5002858;28;20026;-72
2021/03/31 13:07:59;;;;;;;59.25;32.67;;;;;;;;;;5005954;28;20029;-72
2021/03/31 13:10:26;;;;;;;66.85;35.67;;;;;;;;;;5010847;28;20018;-72
2021/03/31 13:12:59;;;;;;;69.53;34.92;;;;;;;;;;5007338;28;20072;-71
2021/03/31 13:15:44;;;;;;;66.60;34.95;;;;;;;;;;5007533;28;20116;-73
2021/03/31 13:26:54;;;;;;;65.90;33.38;;;;;;;;;;5007966;28;20116;-72
2021/03/31 13:31:42;;;;;;;62.33;32.42;;;;;;;;;;5013682;28;20167;-71
2021/03/31 13:34:15;;;;;;;60.03;31.85;;;;;;;;;;5009222;28;20022;-72
2021/03/31 13:36:56;;;;;;;67.40;35.20;;;;;;;;;;5005737;28;20037;-72
2021/03/31 13:39:47;;;;;;;67.47;35.08;;;;;;;;;;5009912;28;20022;-72
2021/03/31 13:42:08;;;;;;;58.92;32.88;;;;;;;;;;5005448;28;20030;-71
2021/03/31 13:44:34;;;;;;;58.60;31.27;;;;;;;;;;5009310;28;20453;-71
2021/03/31 13:47:04;;;;;;;62.50;32.10;;;;;;;;;;5004847;28;20582;-71
2021/03/31 13:49:34;;;;;;;57.05;31.35;;;;;;;;;;5010538;28;20041;-74
2021/03/31 13:54:48;;;;;;;55.63;29.02;;;;;;;;;;5009783;28;20040;-72
2021/03/31 13:57:16;;;;;;;57.50;29.92;;;;;;;;;;5005013;28;20480;-74
2021/03/31 13:59:42;;;;;;;51.28;27.33;;;;;;;;;;5007412;28;20050;-74
2021/03/31 14:02:08;;;;;;;49.83;27.65;;;;;;;;;;4985628;28;20033;-74
2021/03/31 14:04:34;;;;;;;46.42;25.30;;;;;;;;;;5007000;28;20468;-74
2021/03/31 14:07:01;;;;;;;51.53;29.13;;;;;;;;;;5005601;28;20037;-73
2021/03/31 14:09:27;;;;;;;52.78;28.35;;;;;;;;;;5011421;28;20056;-73
2021/03/31 14:11:53;;;;;;;46.28;25.67;;;;;;;;;;4994035;28;20038;-74
2021/03/31 14:14:19;;;;;;;50.30;27.73;;;;;;;;;;5010715;28;20076;-73
2021/03/31 14:17:04;;;;;;;45.90;27.17;;;;;;;;;;5002830;28;20049;-73
2021/03/31 14:19:36;;;;;;;44.88;26.98;;;;;;;;;;5007903;28;20369;-73
2021/03/31 14:22:02;;;;;;;41.80;24.88;;;;;;;;;;5007461;28;20034;-73
2021/03/31 14:24:28;;;;;;;46.15;26.90;;;;;;;;;;5011419;28;20022;-72
2021/03/31 14:26:54;;;;;;;44.92;25.90;;;;;;;;;;5007624;28;20042;-72
2021/03/31 14:29:20;;;;;;;45.60;26.83;;;;;;;;;;5006339;28;20073;-73
2021/03/31 14:31:50;;;;;;;49.50;27.95;;;;;;;;;;4997597;28;20061;-74
2021/03/31 14:34:16;;;;;;;52.90;29.02;;;;;;;;;;5005604;28;20038;-72
2021/03/31 14:36:42;;;;;;;51.13;28.92;;;;;;;;;;5008506;28;20064;-72
2021/03/31 14:39:09;;;;;;;53.58;28.67;;;;;;;;;;5022510;28;20018;-72
2021/03/31 14:41:36;;;;;;;51.38;29.25;;;;;;;;;;5011088;28;20018;-72
2021/03/31 14:44:02;;;;;;;52.05;28.80;;;;;;;;;;5011450;28;20057;-72
2021/03/31 14:46:29;;;;;;;50.38;29.10;;;;;;;;;;5007175;28;20065;-73
2021/03/31 14:48:55;;;;;;;53.38;30.27;;;;;;;;;;5011003;28;20017;-73
2021/03/31 14:51:26;;;;;;;56.38;29.23;;;;;;;;;;5010798;28;20026;-72
2021/03/31 14:57:08;;;;;;;54.15;30.70;;;;;;;;;;4951528;28;20542;-72
2021/03/31 14:59:41;;;;;;;57.58;30.45;;;;;;;;;;5008101;28;20045;-71
2021/03/31 15:02:08;;;;;;;63.55;33.33;;;;;;;;;;5009441;28;20022;-72